Decoded Metar for SVBM (BARQUISIMETO in VENEZUELA) (IATA:BRM) | Meteo·Mobile Aviation Weather
aviador You're here:

SVBM Decoded Metar

BARQUISIMETO in VENEZUELA
Report Time2019-02-23 00:00:00
UTC Time2019-02-23 01:26:43
Flight Rules Old
Wind090° at 10 kt
W.Decomp.*RWY 09: 9.9 kt HW 1.6 kt RCW
W.Rank090° ranks 2
Current wind is above 090° avg. (7.3)
Visibility9999 m
Phenomena:N/A
Clouds:Broken 016 Hf
Expected CloudBase > 2,000 ft AGL from Temp-Dew spread
Ceiling1,600 ft
Temp23°C (ISA +12)
Dew Point18°C (74% RH)
AAT22.2°C
QNH1016 hPa
Density Alt3,586 ft
Elevation2,014 ft
Report Wrong Elevation
Raw Report
METAR SVBM 230000Z 09010KT 9999 BKN016 23/18 Q1016=

Extra information for SVBM:More info

Metar Taf Metar & Taf Last 4 Metars F.Rules Stats Wind Profile Meteogram Temp Stats Airport Information Weather charts Add Link Nearby VenuesMetar ALERT Operation Metar Decoded Social comments